Terminal Aerodrome Forecast
Issued by NWS

Current Version | Previous Version | Text Only | Print | Product List | Glossary Off
Versions: 1 2 3 4 5 6 7 8 9 10 11 12 13 14 15 16 17 18 19 20 21 22 23

862
FTUS41 KPBZ 202002 AAA
TAFMGW
TAF AMD
KMGW 202002Z 2020/2118 25008KT P6SM SCT045
     FM202230 23004KT P6SM VCTS BKN035CB
     FM210400 21002KT P6SM SCT045=

USA.gov is the U.S. government's official web portal to all federal, state and local government web resources and services.